Gildeskaal — LLDI — position and weather

sailwx.info

Track history (hours):
 
Tides and Currents Weather Stations Pressure Air Temp Water Temp Dewpoint Dewpoint Depression Visibility Wind Speed Wind Dir Waves Ship Positions

Gildeskaal

Last reported at 2015-May-26 01:33 UTC. Time now 2015-May-26 01:36 UTC.
Position N 67°08' E 013°59'.

Length 52 m; draft 3.2 m.

Type: Ship. MMSI: 259680000.

Date/timePositionNaut miles runAvg speedWind from/ knotsBaromVisibWave heightAir tempDewpointWater temp
2015-May-26 01:33N 67°08' E 013°59'0 0.0
2015-May-26 00:33N 67°08' E 013°59'0 0.0
2015-May-25 23:33N 67°08' E 013°59'0 0.0
2015-May-25 22:33N 67°08' E 013°59'0 0.0
2015-May-25 21:33N 67°08' E 013°59'0 0.0
2015-May-25 20:33N 67°08' E 013°59'0 0.0
2015-May-25 19:33N 67°08' E 013°59'4 4.0
2015-May-25 18:33N 67°05' E 014°04'1 0.6
2015-May-25 17:25N 67°05' E 014°02'3 2.9
2015-May-25 16:33N 67°07' E 013°59'3 3.3
2015-May-25 15:29N 67°04' E 014°04'4 4.7
2015-May-25 14:33N 67°08' E 013°59'2 1.5
2015-May-25 13:33N 67°07' E 013°59'3 1.5
2015-May-25 11:29N 67°04' E 014°04'0 0.0
2015-May-25 10:14N 67°04' E 014°04'0 0.0
2015-May-25 09:14N 67°04' E 014°04'0 0.1
2015-May-25 08:32N 67°04' E 014°04'4 3.7
2015-May-25 07:33N 67°07' E 013°59'4 2.6
2015-May-25 06:07N 67°04' E 014°04'0 0.0
2015-May-25 05:29N 67°04' E 014°04'0 0.0
2015-May-25 04:07N 67°04' E 014°04'0 0.0
2015-May-25 03:30N 67°04' E 014°04'0 0.0
2015-May-25 02:32N 67°04' E 014°04'0 0.0
2015-May-25 01:13N 67°04' E 014°04'0 0.0
2015-May-25 00:33N 67°04' E 014°04'0 0.0
2015-May-24 21:33N 67°04' E 014°04'0 0.0
2015-May-24 20:19N 67°04' E 014°04'2 2.3
2015-May-24 19:33N 67°05' E 014°00'1 0.4
2015-May-24 17:23N 67°05' E 014°02'2 2.7
2015-May-24 16:33N 67°07' E 013°59'3 3.2
2015-May-24 15:33N 67°04' E 014°04'4 4.4
2015-May-24 14:33N 67°08' E 013°59'1 1.3
2015-May-24 13:33N 67°07' E 013°59'3 2.2
2015-May-24 12:05N 67°04' E 014°04'0 0.0
2015-May-24 09:11N 67°04' E 014°04'0 0.0
2015-May-24 08:07N 67°04' E 014°04'0 0.0
2015-May-24 06:31N 67°04' E 014°04'0 0.0
2015-May-23 17:24N 67°04' E 014°04'2 0.9
2015-May-23 15:33N 67°05' E 014°00'1 0.8
2015-May-23 14:33N 67°05' E 014°02'1 0.3
2015-May-23 09:33N 67°06' E 013°59'3 2.5
2015-May-23 08:33N 67°08' E 013°59'1 0.9
2015-May-23 07:33N 67°07' E 013°59'3 2.5
2015-May-23 06:33N 67°05' E 014°03'3 3.3
2015-May-23 05:33N 67°08' E 013°59'0 0.0
2015-May-23 04:33N 67°08' E 013°59'0 0.0
2015-May-23 03:33N 67°08' E 013°59'0 0.0
2015-May-23 02:33N 67°08' E 013°59'0 0.0
2015-May-23 01:33N 67°08' E 013°59'0 0.0
2015-May-23 00:33N 67°08' E 013°59'0 0.0
2015-May-22 23:33N 67°08' E 013°59'0 0.0
2015-May-22 22:33N 67°08' E 013°59'0 0.0
2015-May-22 21:33N 67°08' E 013°59'0 0.0
2015-May-22 20:33N 67°08' E 013°59'0 0.0
2015-May-22 19:33N 67°08' E 013°59'3 3.1
2015-May-22 18:32N 67°05' E 014°03'3 2.9
2015-May-22 17:33N 67°08' E 013°59'3 1.3
2015-May-22 15:33N 67°05' E 014°00'1 1.1
2015-May-22 14:23N 67°05' E 014°04'0 0.5
2015-May-22 13:31N 67°05' E 014°02'3 3.5
2015-May-22 12:33N 67°08' E 013°59'0 0.0
2015-May-22 11:33N 67°08' E 013°59'3 3.1
2015-May-22 10:32N 67°05' E 014°01'1 1.4
2015-May-22 09:33N 67°06' E 013°59'2 2.0
2015-May-22 08:33N 67°08' E 013°59'1 1.3
2015-May-22 07:33N 67°07' E 013°59'2 1.1
2015-May-22 05:30N 67°05' E 014°02'3 3.6
2015-May-22 04:33N 67°08' E 013°59'0 0.0
2015-May-22 03:33N 67°08' E 013°59'0 0.0
2015-May-22 02:33N 67°08' E 013°59'0 0.0
2015-May-22 01:33N 67°08' E 013°59'0 0.0
2015-May-22 00:33N 67°08' E 013°59'0 0.0
2015-May-21 23:33N 67°08' E 013°59'0 0.0
2015-May-21 22:33N 67°08' E 013°59'0 0.0
2015-May-21 21:33N 67°08' E 013°59'0 0.0
2015-May-21 20:33N 67°08' E 013°59'0 0.0
2015-May-21 19:33N 67°08' E 013°59'3 2.8
2015-May-21 18:21N 67°05' E 014°03'2 2.4
2015-May-21 17:33N 67°06' E 013°59'1 1.0
2015-May-21 16:33N 67°05' E 013°59'3 2.9
2015-May-21 15:33N 67°08' E 013°59'3 3.2
2015-May-21 14:33N 67°05' E 014°01'1 1.3
2015-May-21 13:32N 67°05' E 014°04'4 4.2
2015-May-21 12:33N 67°08' E 013°59'0 0.0
2015-May-21 11:33N 67°08' E 013°59'3 2.6
2015-May-21 10:33N 67°06' E 013°59'0 0.1
2015-May-21 09:33N 67°05' E 013°59'3 2.7
2015-May-21 08:33N 67°08' E 013°59'2 1.6
2015-May-21 07:33N 67°07' E 013°59'2 1.0
2015-May-21 05:28N 67°05' E 014°02'3 3.7
2015-May-21 04:33N 67°08' E 013°59'0 0.0
2015-May-21 03:33N 67°08' E 013°59'0 0.0
2015-May-21 02:33N 67°08' E 013°59'0 0.0
2015-May-21 01:33N 67°08' E 013°59'0 0.0
2015-May-21 00:33N 67°08' E 013°59'0 0.0
2015-May-20 23:33N 67°08' E 013°59'0 0.0
2015-May-20 22:33N 67°08' E 013°59'0 0.0
2015-May-20 21:33N 67°08' E 013°59'0 0.0
2015-May-20 20:33N 67°08' E 013°59'0 0.0
2015-May-20 19:33N 67°08' E 013°59'4 4.1
2015-May-20 18:32N 67°04' E 014°04'3 3.6
2015-May-20 17:33N 67°07' E 013°59'2 2.5
2015-May-20 16:33N 67°05' E 014°01'3 3.3
2015-May-20 15:34N 67°08' E 013°59'3 3.4
2015-May-20 14:33N 67°05' E 014°02'1 0.8
2015-May-20 13:32N 67°05' E 014°04'4 3.9
2015-May-20 12:33N 67°08' E 013°59'0 0.0
2015-May-20 11:33N 67°08' E 013°59'2 2.3
2015-May-20 10:33N 67°06' E 013°59'0 0.2
2015-May-20 09:33N 67°06' E 013°58'2 2.2
2015-May-20 08:33N 67°08' E 013°59'1 1.4
2015-May-20 07:33N 67°07' E 013°59'2 1.1
2015-May-20 05:29N 67°05' E 014°02'3 3.7
2015-May-20 04:33N 67°08' E 013°59'0 0.0
2015-May-20 03:33N 67°08' E 013°59'0 0.0
2015-May-20 02:33N 67°08' E 013°59'0 0.0
2015-May-20 01:33N 67°08' E 013°59'0 0.0
2015-May-20 00:33N 67°08' E 013°59'0 0.0
2015-May-19 23:33N 67°08' E 013°59'0 0.0
2015-May-19 22:33N 67°08' E 013°59'0 0.0
2015-May-19 21:33N 67°08' E 013°59'0 0.0
2015-May-19 20:33N 67°08' E 013°59'0 0.0
2015-May-19 19:33N 67°08' E 013°59'4 3.6
2015-May-19 18:29N 67°05' E 014°04'3 2.9
2015-May-19 17:33N 67°07' E 013°59'2 1.7
2015-May-19 16:33N 67°05' E 014°00'3 3.1
2015-May-19 15:33N 67°08' E 013°59'3 3.4
2015-May-19 14:33N 67°05' E 014°02'0 0.2
2015-May-19 13:31N 67°05' E 014°02'4 3.7
2015-May-19 12:33N 67°08' E 013°59'0 0.0
2015-May-19 11:33N 67°08' E 013°59'2 2.4
2015-May-19 10:33N 67°06' E 013°59'0 0.2
2015-May-19 09:33N 67°06' E 013°59'3 2.6
2015-May-19 08:33N 67°08' E 013°59'1 1.2
2015-May-19 07:33N 67°07' E 013°59'2 1.2
2015-May-19 05:29N 67°05' E 014°02'3 3.7
2015-May-19 04:33N 67°08' E 013°59'0 0.0
2015-May-19 03:33N 67°08' E 013°59'0 0.0
2015-May-19 02:33N 67°08' E 013°59'0 0.0
2015-May-19 01:33N 67°08' E 013°59'0 0.0
2015-May-19 00:33N 67°08' E 013°59'0 0.0
2015-May-18 23:33N 67°08' E 013°59'0 0.0
2015-May-18 22:33N 67°08' E 013°59'0 0.0
2015-May-18 21:33N 67°08' E 013°59'0 0.0
2015-May-18 20:33N 67°08' E 013°59'0 0.0
2015-May-18 19:33N 67°08' E 013°59'4 3.5
2015-May-18 18:25N 67°05' E 014°04'3 3.8
2015-May-18 17:33N 67°07' E 013°59'2 2.3
2015-May-18 16:33N 67°05' E 014°00'3 3.0
2015-May-18 15:33N 67°08' E 013°59'3 3.3
2015-May-18 14:31N 67°05' E 014°02'1 0.9
2015-May-18 13:19N 67°04' E 014°04'4 5.7
2015-May-18 12:33N 67°08' E 013°59'3 0.9
2015-May-18 09:33N 67°06' E 013°59'3 2.6
2015-May-18 08:34N 67°08' E 013°59'1 1.1
2015-May-18 07:33N 67°07' E 013°59'2 1.2
2015-May-18 05:29N 67°05' E 014°02'3 3.7
2015-May-18 04:33N 67°08' E 013°59'0 0.0
2015-May-18 03:34N 67°08' E 013°59'0 0.0
2015-May-18 02:34N 67°08' E 013°59'0 0.0
2015-May-18 01:34N 67°08' E 013°59'0 0.0
2015-May-18 00:34N 67°08' E 013°59'0 0.0
2015-May-17 23:34N 67°08' E 013°59'0 0.0
2015-May-17 22:34N 67°08' E 013°59'0 0.0
2015-May-17 21:34N 67°08' E 013°59'0 0.0
2015-May-17 20:33N 67°08' E 013°59'0 0.0
2015-May-17 19:33N 67°08' E 013°59'3 1.6
2015-May-17 17:23N 67°05' E 014°02'2 2.8
2015-May-17 16:33N 67°07' E 013°59'2 1.2
2015-May-17 15:06N 67°05' E 013°60'3 5.4
2015-May-17 14:33N 67°08' E 013°59'1 0.5
2015-May-17 13:34N 67°08' E 013°59'4 0.9
2015-May-17 09:18N 67°04' E 014°04'0 0.1
2015-May-17 08:33N 67°04' E 014°04'4 4.0
2015-May-17 07:33N 67°08' E 013°59'4 3.2
2015-May-17 06:19N 67°04' E 014°04'0 0.0
2015-May-17 03:06N 67°04' E 014°04'0 0.0
2015-May-17 02:31N 67°04' E 014°04'0 0.0
2015-May-16 19:14N 67°04' E 014°04'0 0.0
2015-May-16 17:23N 67°04' E 014°04'2 1.0
2015-May-16 15:34N 67°05' E 014°00'1 0.7
2015-May-16 14:30N 67°05' E 014°02'1 0.3
2015-May-16 09:33N 67°06' E 013°59'3 2.7
2015-May-16 08:34N 67°08' E 013°59'0 0.5
2015-May-16 07:33N 67°08' E 013°59'3 2.8
2015-May-16 06:28N 67°05' E 014°02'3 3.9
2015-May-16 05:34N 67°08' E 013°59'0 0.0
2015-May-16 04:33N 67°08' E 013°59'0 0.0
2015-May-16 03:34N 67°08' E 013°59'0 0.0
2015-May-16 02:33N 67°08' E 013°59'0 0.0
2015-May-16 01:34N 67°08' E 013°59'  
Track history (hours):
 
Tides and Currents Weather Stations Pressure Air Temp Water Temp Dewpoint Dewpoint Depression Visibility Wind Speed Wind Dir Waves Ship Positions

Gildeskaal

Last reported at 2015-May-26 01:33 UTC. Time now 2015-May-26 01:36 UTC.
Position N 67°08' E 013°59'.

Length 52 m; draft 3.2 m.

Type: Ship. MMSI: 259680000.

Date/timePositionNaut miles runAvg speedWind from/ knotsBaromVisibWave heightAir tempDewpointWater temp
2015-May-26 01:33N 67°08' E 013°59'0 0.0
2015-May-26 00:33N 67°08' E 013°59'0 0.0
2015-May-25 23:33N 67°08' E 013°59'0 0.0
2015-May-25 22:33N 67°08' E 013°59'0 0.0
2015-May-25 21:33N 67°08' E 013°59'0 0.0
2015-May-25 20:33N 67°08' E 013°59'0 0.0
2015-May-25 19:33N 67°08' E 013°59'4 4.0
2015-May-25 18:33N 67°05' E 014°04'1 0.6
2015-May-25 17:25N 67°05' E 014°02'3 2.9
2015-May-25 16:33N 67°07' E 013°59'3 3.3
2015-May-25 15:29N 67°04' E 014°04'4 4.7
2015-May-25 14:33N 67°08' E 013°59'2 1.5
2015-May-25 13:33N 67°07' E 013°59'3 1.5
2015-May-25 11:29N 67°04' E 014°04'0 0.0
2015-May-25 10:14N 67°04' E 014°04'0 0.0
2015-May-25 09:14N 67°04' E 014°04'0 0.1
2015-May-25 08:32N 67°04' E 014°04'4 3.7
2015-May-25 07:33N 67°07' E 013°59'4 2.6
2015-May-25 06:07N 67°04' E 014°04'0 0.0
2015-May-25 05:29N 67°04' E 014°04'0 0.0
2015-May-25 04:07N 67°04' E 014°04'0 0.0
2015-May-25 03:30N 67°04' E 014°04'0 0.0
2015-May-25 02:32N 67°04' E 014°04'0 0.0
2015-May-25 01:13N 67°04' E 014°04'0 0.0
2015-May-25 00:33N 67°04' E 014°04'0 0.0
2015-May-24 21:33N 67°04' E 014°04'0 0.0
2015-May-24 20:19N 67°04' E 014°04'2 2.3
2015-May-24 19:33N 67°05' E 014°00'1 0.4
2015-May-24 17:23N 67°05' E 014°02'2 2.7
2015-May-24 16:33N 67°07' E 013°59'3 3.2
2015-May-24 15:33N 67°04' E 014°04'4 4.4
2015-May-24 14:33N 67°08' E 013°59'1 1.3
2015-May-24 13:33N 67°07' E 013°59'3 2.2
2015-May-24 12:05N 67°04' E 014°04'0 0.0
2015-May-24 09:11N 67°04' E 014°04'0 0.0
2015-May-24 08:07N 67°04' E 014°04'0 0.0
2015-May-24 06:31N 67°04' E 014°04'0 0.0
2015-May-23 17:24N 67°04' E 014°04'2 0.9
2015-May-23 15:33N 67°05' E 014°00'1 0.8
2015-May-23 14:33N 67°05' E 014°02'1 0.3
2015-May-23 09:33N 67°06' E 013°59'3 2.5
2015-May-23 08:33N 67°08' E 013°59'1 0.9
2015-May-23 07:33N 67°07' E 013°59'3 2.5
2015-May-23 06:33N 67°05' E 014°03'3 3.3
2015-May-23 05:33N 67°08' E 013°59'0 0.0
2015-May-23 04:33N 67°08' E 013°59'0 0.0
2015-May-23 03:33N 67°08' E 013°59'0 0.0
2015-May-23 02:33N 67°08' E 013°59'0 0.0
2015-May-23 01:33N 67°08' E 013°59'0 0.0
2015-May-23 00:33N 67°08' E 013°59'0 0.0
2015-May-22 23:33N 67°08' E 013°59'0 0.0
2015-May-22 22:33N 67°08' E 013°59'0 0.0
2015-May-22 21:33N 67°08' E 013°59'0 0.0
2015-May-22 20:33N 67°08' E 013°59'0 0.0
2015-May-22 19:33N 67°08' E 013°59'3 3.1
2015-May-22 18:32N 67°05' E 014°03'3 2.9
2015-May-22 17:33N 67°08' E 013°59'3 1.3
2015-May-22 15:33N 67°05' E 014°00'1 1.1
2015-May-22 14:23N 67°05' E 014°04'0 0.5
2015-May-22 13:31N 67°05' E 014°02'3 3.5
2015-May-22 12:33N 67°08' E 013°59'0 0.0
2015-May-22 11:33N 67°08' E 013°59'3 3.1
2015-May-22 10:32N 67°05' E 014°01'1 1.4
2015-May-22 09:33N 67°06' E 013°59'2 2.0
2015-May-22 08:33N 67°08' E 013°59'1 1.3
2015-May-22 07:33N 67°07' E 013°59'2 1.1
2015-May-22 05:30N 67°05' E 014°02'3 3.6
2015-May-22 04:33N 67°08' E 013°59'0 0.0
2015-May-22 03:33N 67°08' E 013°59'0 0.0
2015-May-22 02:33N 67°08' E 013°59'0 0.0
2015-May-22 01:33N 67°08' E 013°59'0 0.0
2015-May-22 00:33N 67°08' E 013°59'0 0.0
2015-May-21 23:33N 67°08' E 013°59'0 0.0
2015-May-21 22:33N 67°08' E 013°59'0 0.0
2015-May-21 21:33N 67°08' E 013°59'0 0.0
2015-May-21 20:33N 67°08' E 013°59'0 0.0
2015-May-21 19:33N 67°08' E 013°59'3 2.8
2015-May-21 18:21N 67°05' E 014°03'2 2.4
2015-May-21 17:33N 67°06' E 013°59'1 1.0
2015-May-21 16:33N 67°05' E 013°59'3 2.9
2015-May-21 15:33N 67°08' E 013°59'3 3.2
2015-May-21 14:33N 67°05' E 014°01'1 1.3
2015-May-21 13:32N 67°05' E 014°04'4 4.2
2015-May-21 12:33N 67°08' E 013°59'0 0.0
2015-May-21 11:33N 67°08' E 013°59'3 2.6
2015-May-21 10:33N 67°06' E 013°59'0 0.1
2015-May-21 09:33N 67°05' E 013°59'3 2.7
2015-May-21 08:33N 67°08' E 013°59'2 1.6
2015-May-21 07:33N 67°07' E 013°59'2 1.0
2015-May-21 05:28N 67°05' E 014°02'3 3.7
2015-May-21 04:33N 67°08' E 013°59'0 0.0
2015-May-21 03:33N 67°08' E 013°59'0 0.0
2015-May-21 02:33N 67°08' E 013°59'0 0.0
2015-May-21 01:33N 67°08' E 013°59'0 0.0
2015-May-21 00:33N 67°08' E 013°59'0 0.0
2015-May-20 23:33N 67°08' E 013°59'0 0.0
2015-May-20 22:33N 67°08' E 013°59'0 0.0
2015-May-20 21:33N 67°08' E 013°59'0 0.0
2015-May-20 20:33N 67°08' E 013°59'0 0.0
2015-May-20 19:33N 67°08' E 013°59'4 4.1
2015-May-20 18:32N 67°04' E 014°04'3 3.6
2015-May-20 17:33N 67°07' E 013°59'2 2.5
2015-May-20 16:33N 67°05' E 014°01'3 3.3
2015-May-20 15:34N 67°08' E 013°59'3 3.4
2015-May-20 14:33N 67°05' E 014°02'1 0.8
2015-May-20 13:32N 67°05' E 014°04'4 3.9
2015-May-20 12:33N 67°08' E 013°59'0 0.0
2015-May-20 11:33N 67°08' E 013°59'2 2.3
2015-May-20 10:33N 67°06' E 013°59'0 0.2
2015-May-20 09:33N 67°06' E 013°58'2 2.2
2015-May-20 08:33N 67°08' E 013°59'1 1.4
2015-May-20 07:33N 67°07' E 013°59'2 1.1
2015-May-20 05:29N 67°05' E 014°02'3 3.7
2015-May-20 04:33N 67°08' E 013°59'0 0.0
2015-May-20 03:33N 67°08' E 013°59'0 0.0
2015-May-20 02:33N 67°08' E 013°59'0 0.0
2015-May-20 01:33N 67°08' E 013°59'0 0.0
2015-May-20 00:33N 67°08' E 013°59'0 0.0
2015-May-19 23:33N 67°08' E 013°59'0 0.0
2015-May-19 22:33N 67°08' E 013°59'0 0.0
2015-May-19 21:33N 67°08' E 013°59'0 0.0
2015-May-19 20:33N 67°08' E 013°59'0 0.0
2015-May-19 19:33N 67°08' E 013°59'4 3.6
2015-May-19 18:29N 67°05' E 014°04'3 2.9
2015-May-19 17:33N 67°07' E 013°59'2 1.7
2015-May-19 16:33N 67°05' E 014°00'3 3.1
2015-May-19 15:33N 67°08' E 013°59'3 3.4
2015-May-19 14:33N 67°05' E 014°02'0 0.2
2015-May-19 13:31N 67°05' E 014°02'4 3.7
2015-May-19 12:33N 67°08' E 013°59'0 0.0
2015-May-19 11:33N 67°08' E 013°59'2 2.4
2015-May-19 10:33N 67°06' E 013°59'0 0.2
2015-May-19 09:33N 67°06' E 013°59'3 2.6
2015-May-19 08:33N 67°08' E 013°59'1 1.2
2015-May-19 07:33N 67°07' E 013°59'2 1.2
2015-May-19 05:29N 67°05' E 014°02'3 3.7
2015-May-19 04:33N 67°08' E 013°59'0 0.0
2015-May-19 03:33N 67°08' E 013°59'0 0.0
2015-May-19 02:33N 67°08' E 013°59'0 0.0
2015-May-19 01:33N 67°08' E 013°59'0 0.0
2015-May-19 00:33N 67°08' E 013°59'0 0.0
2015-May-18 23:33N 67°08' E 013°59'0 0.0
2015-May-18 22:33N 67°08' E 013°59'0 0.0
2015-May-18 21:33N 67°08' E 013°59'0 0.0
2015-May-18 20:33N 67°08' E 013°59'0 0.0
2015-May-18 19:33N 67°08' E 013°59'4 3.5
2015-May-18 18:25N 67°05' E 014°04'3 3.8
2015-May-18 17:33N 67°07' E 013°59'2 2.3
2015-May-18 16:33N 67°05' E 014°00'3 3.0
2015-May-18 15:33N 67°08' E 013°59'3 3.3
2015-May-18 14:31N 67°05' E 014°02'1 0.9
2015-May-18 13:19N 67°04' E 014°04'4 5.7
2015-May-18 12:33N 67°08' E 013°59'3 0.9
2015-May-18 09:33N 67°06' E 013°59'3 2.6
2015-May-18 08:34N 67°08' E 013°59'1 1.1
2015-May-18 07:33N 67°07' E 013°59'2 1.2
2015-May-18 05:29N 67°05' E 014°02'3 3.7
2015-May-18 04:33N 67°08' E 013°59'0 0.0
2015-May-18 03:34N 67°08' E 013°59'0 0.0
2015-May-18 02:34N 67°08' E 013°59'0 0.0
2015-May-18 01:34N 67°08' E 013°59'0 0.0
2015-May-18 00:34N 67°08' E 013°59'0 0.0
2015-May-17 23:34N 67°08' E 013°59'0 0.0
2015-May-17 22:34N 67°08' E 013°59'0 0.0
2015-May-17 21:34N 67°08' E 013°59'0 0.0
2015-May-17 20:33N 67°08' E 013°59'0 0.0
2015-May-17 19:33N 67°08' E 013°59'3 1.6
2015-May-17 17:23N 67°05' E 014°02'2 2.8
2015-May-17 16:33N 67°07' E 013°59'2 1.2
2015-May-17 15:06N 67°05' E 013°60'3 5.4
2015-May-17 14:33N 67°08' E 013°59'1 0.5
2015-May-17 13:34N 67°08' E 013°59'4 0.9
2015-May-17 09:18N 67°04' E 014°04'0 0.1
2015-May-17 08:33N 67°04' E 014°04'4 4.0
2015-May-17 07:33N 67°08' E 013°59'4 3.2
2015-May-17 06:19N 67°04' E 014°04'0 0.0
2015-May-17 03:06N 67°04' E 014°04'0 0.0
2015-May-17 02:31N 67°04' E 014°04'0 0.0
2015-May-16 19:14N 67°04' E 014°04'0 0.0
2015-May-16 17:23N 67°04' E 014°04'2 1.0
2015-May-16 15:34N 67°05' E 014°00'1 0.7
2015-May-16 14:30N 67°05' E 014°02'1 0.3
2015-May-16 09:33N 67°06' E 013°59'3 2.7
2015-May-16 08:34N 67°08' E 013°59'0 0.5
2015-May-16 07:33N 67°08' E 013°59'3 2.8
2015-May-16 06:28N 67°05' E 014°02'3 3.9
2015-May-16 05:34N 67°08' E 013°59'0 0.0
2015-May-16 04:33N 67°08' E 013°59'0 0.0
2015-May-16 03:34N 67°08' E 013°59'0 0.0
2015-May-16 02:33N 67°08' E 013°59'0 0.0
2015-May-16 01:34N 67°08' E 013°59'  

Dump ship's entire track history